This is the latest recevied weather packets stored in our database for station/object F5IOR-13. If no packets are shown the sender has not sent any weather packets the latest 10 day(s).
| Time | Temp. | Humidity | Pressure | Rain* | Wind** | Luminosity | Snow |
|---|---|---|---|---|---|---|---|
| 1777304304 | 23.33° C | 25% | 989.3 hPa | 0 mm | - | - | - |
| 1777302504 | 23.33° C | 26% | 989.6 hPa | 0 mm | - | - | - |
| 1777300704 | 23.33° C | 26% | 989.9 hPa | 0 mm | - | - | - |
| 1777298904 | 23.33° C | 27% | 990 hPa | 0 mm | - | - | - |
| 1777297104 | 23.33° C | 27% | 990.5 hPa | 0 mm | - | - | - |
| 1777295304 | 22.78° C | 29% | 990.7 hPa | 0 mm | - | - | - |
| 1777293504 | 22.78° C | 31% | 990.9 hPa | 0 mm | - | - | - |
| 1777291704 | 22.22° C | 35% | 990.9 hPa | 0 mm | - | - | - |
| 1777289904 | 21.67° C | 37% | 991 hPa | 0 mm | - | - | - |
| 1777288104 | 20.56° C | 43% | 991.2 hPa | 0 mm | - | - | - |
| 1777286304 | 20° C | 45% | 991.3 hPa | 0 mm | - | - | - |
| 1777284504 | 17.78° C | 56% | 991.9 hPa | 0 mm | - | - | - |
| 1777282704 | 17.22° C | 57% | 991.9 hPa | 0 mm | - | - | - |
| 1777281744 | 15.56° C | 60% | 992.1 hPa | 0 mm | - | - | - |
| 1777280784 | 15° C | 63% | 992.1 hPa | 0 mm | - | - | - |
| 1777279824 | 13.89° C | 67% | 992.2 hPa | 0 mm | - | - | - |
| 1777278864 | 11.67° C | 76% | 992.3 hPa | 0 mm | - | - | - |
| 1777278384 | 11.67° C | 76% | 992.3 hPa | 0 mm | - | - | - |
| 1777277904 | 11.67° C | 76% | 992.3 hPa | 0 mm | - | - | - |
| 1777277424 | 10.56° C | 80% | 992.3 hPa | 0 mm | - | - | - |
| 1777276944 | 10.56° C | 80% | 992.3 hPa | 0 mm | - | - | - |
| 1777276704 | 8.89° C | 86% | 992.3 hPa | 0 mm | - | - | - |
| 1777276464 | 8.89° C | 86% | 992.3 hPa | 0 mm | - | - | - |
| 1777276224 | 8.89° C | 86% | 992.3 hPa | 0 mm | - | - | - |
| 1777275984 | 8.89° C | 86% | 992.3 hPa | 0 mm | - | - | - |
* Rain latest hour (hover to see other rain measurements)
** Current wind speed in m/s (hover to see current wind gust speed)